Time;durP1;ratioP1;P1;durP2;ratioP2;P2;SDS_P1;SDS_P2;PMS_P1;PMS_P2;Temp;Humidity;BMP_temperature;BMP_pressure;BME280_temperature;BME280_humidity;BME280_pressure;Samples;Min_cycle;Max_cycle;Signal;HPM_P1;HPM_P2
2023/08/09 00:04:48;;;;;;;1.65;0.80;;;;;;;18.86;59.53;96671.50;10541419;28;20039;-28
2023/08/09 00:09:48;;;;;;;2.22;0.77;;;;;;;18.86;58.96;96674.03;10546938;28;20054;-28
2023/08/09 00:14:50;;;;;;;1.43;1.03;;;;;;;18.86;58.93;96663.03;10533366;28;20028;-28
2023/08/09 00:19:50;;;;;;;1.20;0.85;;;;;;;18.83;58.93;96658.81;10525771;28;20397;-28
2023/08/09 00:24:51;;;;;;;1.23;0.90;;;;;;;18.84;58.88;96639.38;10536076;28;20035;-28
2023/08/09 00:29:51;;;;;;;1.20;0.63;;;;;;;18.83;59.01;96627.53;10528783;28;20028;-28
2023/08/09 00:34:52;;;;;;;1.43;1.20;;;;;;;18.89;61.11;96618.22;10523526;28;20054;-28
2023/08/09 00:39:52;;;;;;;1.45;1.10;;;;;;;18.95;60.87;96617.34;10505845;28;20121;-28
2023/08/09 00:44:53;;;;;;;2.85;0.80;;;;;;;18.94;60.74;96625.81;10531659;28;20031;-28
2023/08/09 00:49:54;;;;;;;2.07;0.87;;;;;;;18.92;59.04;96637.66;10531181;28;20036;-28
2023/08/09 00:54:55;;;;;;;2.15;0.82;;;;;;;18.91;59.00;96638.50;10528231;28;20285;-28
2023/08/09 00:59:55;;;;;;;2.03;0.90;;;;;;;18.88;58.97;96630.91;10511164;28;20468;-28
2023/08/09 01:04:55;;;;;;;1.03;0.70;;;;;;;18.86;59.01;96622.44;10508517;28;20035;-28
2023/08/09 01:10:15;;;;;;;1.83;0.73;;;;;;;18.84;59.01;96632.59;10534025;28;20040;-28
2023/08/09 01:15:19;;;;;;;1.45;0.93;;;;;;;18.82;58.89;96633.47;10520332;28;20671;-28
2023/08/09 01:20:21;;;;;;;1.20;0.80;;;;;;;18.84;59.08;96636.84;10511258;28;20032;-28
2023/08/09 01:25:22;;;;;;;0.73;0.65;;;;;;;18.81;59.17;96629.22;10539164;28;20089;-28
2023/08/09 01:30:23;;;;;;;1.40;0.90;;;;;;;18.84;59.29;96631.78;10519576;28;20563;-28
2023/08/09 01:35:25;;;;;;;2.15;0.75;;;;;;;18.90;61.12;96613.97;10545063;28;20040;-28
2023/08/09 01:40:26;;;;;;;1.33;0.90;;;;;;;18.96;60.83;96624.09;10543964;28;20032;-30
2023/08/09 01:45:28;;;;;;;2.20;1.10;;;;;;;18.94;60.99;96620.75;10537076;28;20031;-28
2023/08/09 01:50:30;;;;;;;2.10;0.93;;;;;;;18.92;58.90;96627.50;10544970;28;20059;-27
2023/08/09 01:55:31;;;;;;;1.03;0.83;;;;;;;18.90;58.89;96629.19;10532310;28;20036;-28
2023/08/09 02:00:32;;;;;;;3.08;0.70;;;;;;;18.86;59.06;96614.84;10535291;28;20274;-28
2023/08/09 02:05:33;;;;;;;1.63;0.73;;;;;;;18.87;59.12;96619.91;10511012;28;20063;-28
2023/08/09 02:10:33;;;;;;;1.77;0.77;;;;;;;18.85;59.07;96624.13;10532877;28;20130;-28
2023/08/09 02:15:34;;;;;;;0.60;0.60;;;;;;;18.85;59.14;96623.31;10529891;28;20030;-28
2023/08/09 02:20:34;;;;;;;1.60;0.90;;;;;;;18.85;59.15;96625.84;10523434;28;20794;-27
2023/08/09 02:25:35;;;;;;;0.63;0.50;;;;;;;18.83;58.99;96633.44;10531988;28;20036;-28
2023/08/09 02:30:35;;;;;;;1.70;1.23;;;;;;;18.88;60.82;96630.91;10517818;28;20054;-27
2023/08/09 02:35:57;;;;;;;2.73;1.07;;;;;;;18.88;60.64;96614.00;10527729;28;20300;-27
2023/08/09 02:40:58;;;;;;;1.98;1.00;;;;;;;18.96;60.68;96629.19;10517729;28;20428;-27
2023/08/09 02:45:58;;;;;;;2.70;1.00;;;;;;;18.94;59.30;96628.34;10528543;28;20087;-28
2023/08/09 02:50:58;;;;;;;0.60;0.60;;;;;;;18.90;58.90;96631.72;10536157;28;20103;-28
2023/08/09 02:55:59;;;;;;;1.57;0.97;;;;;;;18.88;58.96;96628.34;10520096;28;20336;-28
2023/08/09 03:01:00;;;;;;;2.22;0.60;;;;;;;18.86;59.16;96633.47;10526092;28;20306;-29
2023/08/09 03:06:00;;;;;;;0.90;0.70;;;;;;;18.85;59.23;96634.28;10507467;28;20540;-28
2023/08/09 03:11:01;;;;;;;0.85;0.70;;;;;;;18.85;59.17;96634.28;10509959;28;20032;-28
2023/08/09 03:16:01;;;;;;;0.60;0.50;;;;;;;18.86;59.13;96638.53;10513201;28;20053;-28
2023/08/09 03:21:02;;;;;;;0.83;0.50;;;;;;;18.85;59.07;96646.13;10530372;28;20050;-28
2023/08/09 03:26:03;;;;;;;1.15;0.85;;;;;;;18.85;59.16;96646.97;10511041;28;20305;-28
2023/08/09 03:31:04;;;;;;;0.98;0.85;;;;;;;18.93;60.46;96654.56;10505600;28;20490;-28
2023/08/09 03:36:09;;;;;;;1.05;0.93;;;;;;;18.95;60.62;96658.78;10532728;28;20581;-28
2023/08/09 03:41:09;;;;;;;1.33;0.80;;;;;;;18.94;60.22;96656.25;10527692;28;20055;-28
2023/08/09 03:46:09;;;;;;;1.17;0.73;;;;;;;18.77;59.20;96627.56;10534053;28;20043;-28
2023/08/09 03:51:10;;;;;;;0.90;0.77;;;;;;;18.89;58.97;96647.78;10509723;28;20512;-27
2023/08/09 03:56:11;;;;;;;2.47;0.70;;;;;;;18.87;59.13;96650.38;10522617;28;20059;-28
2023/08/09 04:01:11;;;;;;;2.05;1.33;;;;;;;18.87;58.95;96657.13;10532649;28;20028;-27
2023/08/09 04:06:11;;;;;;;1.13;0.73;;;;;;;18.90;58.95;96664.69;10532569;28;20046;-28
2023/08/09 04:11:12;;;;;;;1.13;0.60;;;;;;;18.88;59.14;96671.47;10520617;28;20105;-28
2023/08/09 04:16:13;;;;;;;2.00;0.80;;;;;;;18.87;59.11;96680.81;10507405;28;20062;-28
2023/08/09 04:21:15;;;;;;;1.50;0.73;;;;;;;18.86;59.09;96678.25;10508580;28;20051;-28
2023/08/09 04:26:15;;;;;;;2.22;1.58;;;;;;;18.91;59.63;96682.47;10517377;28;20056;-26
2023/08/09 04:31:16;;;;;;;1.63;1.00;;;;;;;18.94;59.79;96674.88;10528914;28;20103;-28
2023/08/09 04:36:16;;;;;;;2.30;0.70;;;;;;;18.99;59.53;96682.47;10517713;28;20033;-28
2023/08/09 04:41:17;;;;;;;2.07;0.87;;;;;;;18.98;59.25;96680.75;10521666;28;20054;-28
2023/08/09 04:46:18;;;;;;;1.20;0.90;;;;;;;18.92;59.37;96679.06;10527551;28;20093;-28
2023/08/09 04:51:18;;;;;;;4.55;0.90;;;;;;;18.93;58.99;96682.47;10528119;28;20732;-28
2023/08/09 04:56:19;;;;;;;1.27;0.80;;;;;;;18.93;58.88;96682.47;10520585;28;20040;-29
2023/08/09 05:01:19;;;;;;;2.63;1.33;;;;;;;18.88;60.80;96672.34;10501527;28;20075;-28
2023/08/09 05:06:19;;;;;;;2.23;0.77;;;;;;;18.87;60.12;96685.00;10491636;28;20032;-28
2023/08/09 05:11:22;;;;;;;2.87;0.80;;;;;;;18.91;59.12;96696.88;10487018;28;20322;-28
2023/08/09 05:16:25;;;;;;;2.85;1.45;;;;;;;18.88;60.01;96676.56;10490101;28;20040;-31
2023/08/09 05:21:26;;;;;;;1.20;0.70;;;;;;;18.90;59.13;96679.94;10489504;28;20040;-28
2023/08/09 05:26:26;;;;;;;9.55;1.85;;;;;;;18.97;60.42;96686.69;10482060;28;20078;-29
2023/08/09 05:31:26;;;;;;;4.00;1.33;;;;;;;18.90;60.59;96690.06;10478845;28;20031;-28
2023/08/09 05:36:27;;;;;;;4.30;1.30;;;;;;;18.92;60.65;96683.31;10487465;28;20739;-28
2023/08/09 05:41:27;;;;;;;3.37;1.10;;;;;;;18.83;59.87;96680.81;10484934;28;20332;-28
2023/08/09 05:46:28;;;;;;;3.50;0.93;;;;;;;18.95;59.67;96703.59;10488772;28;20032;-28
2023/08/09 05:51:31;;;;;;;1.20;0.93;;;;;;;18.92;59.63;96723.91;10495651;28;20156;-28
2023/08/09 05:56:32;;;;;;;1.95;0.98;;;;;;;18.89;59.64;96727.28;10493505;28;20084;-28
2023/08/09 06:01:32;;;;;;;2.50;0.80;;;;;;;18.90;59.51;96730.66;10496491;28;20464;-28
2023/08/09 06:06:35;;;;;;;4.70;1.40;;;;;;;18.88;59.57;96730.69;10495697;28;20067;-28
2023/08/09 06:11:36;;;;;;;1.60;0.77;;;;;;;18.90;59.53;96735.72;10491684;28;20512;-28
2023/08/09 06:16:36;;;;;;;2.08;0.95;;;;;;;18.89;59.52;96734.03;10496813;28;20031;-27
2023/08/09 06:21:37;;;;;;;4.67;1.27;;;;;;;18.93;60.46;96736.56;10497458;28;20089;-28
2023/08/09 06:26:38;;;;;;;4.68;1.65;;;;;;;18.99;60.79;96735.75;10491163;28;20305;-28
2023/08/09 06:31:38;;;;;;;1.83;1.23;;;;;;;18.99;60.67;96750.97;10492017;28;20028;-27
2023/08/09 06:36:38;;;;;;;1.77;0.93;;;;;;;18.99;59.82;96748.44;10494757;28;20024;-28
2023/08/09 06:41:39;;;;;;;2.30;1.40;;;;;;;18.97;59.30;96752.63;10491415;28;20513;-27
2023/08/09 06:46:39;;;;;;;0.90;0.73;;;;;;;18.93;59.55;96753.50;10488363;28;20044;-28
2023/08/09 06:51:41;;;;;;;2.40;1.10;;;;;;;18.92;59.58;96770.41;10485559;28;20294;-28
2023/08/09 06:56:41;;;;;;;1.83;0.98;;;;;;;18.85;59.45;96750.97;10489374;28;20540;-28
2023/08/09 07:01:43;;;;;;;1.07;0.93;;;;;;;18.87;59.47;96758.59;10494929;28;20118;-28
2023/08/09 07:06:44;;;;;;;1.33;1.00;;;;;;;18.91;59.48;96776.34;10494260;28;20095;-27
2023/08/09 07:11:46;;;;;;;1.50;0.73;;;;;;;18.90;59.42;96768.72;10491277;28;20101;-28
2023/08/09 07:16:46;;;;;;;1.63;0.93;;;;;;;18.91;59.54;96778.03;10493331;28;20059;-27
2023/08/09 07:21:49;;;;;;;2.90;1.03;;;;;;;18.96;60.93;96761.09;10489910;28;20040;-28
2023/08/09 07:26:49;;;;;;;1.88;1.02;;;;;;;18.99;61.02;96756.88;10490704;28;20035;-28
2023/08/09 07:31:49;;;;;;;1.73;0.97;;;;;;;19.02;60.61;96756.03;10490294;28;20051;-27
2023/08/09 07:36:50;;;;;;;2.17;1.10;;;;;;;19.00;59.86;96755.19;10497476;28;20043;-28
2023/08/09 07:41:53;;;;;;;1.30;1.20;;;;;;;18.97;59.37;96745.03;10496060;28;20409;-28
2023/08/09 07:46:53;;;;;;;3.50;1.65;;;;;;;18.91;59.38;96747.59;10487995;28;20032;-28
2023/08/09 07:51:54;;;;;;;1.30;0.90;;;;;;;18.94;59.37;96745.03;10492738;28;20131;-28
2023/08/09 07:56:55;;;;;;;1.67;1.08;;;;;;;18.92;59.46;96745.03;10491250;28;20032;-29
2023/08/09 08:01:55;;;;;;;2.05;0.70;;;;;;;18.91;59.45;96745.88;10490131;28;20032;-30
2023/08/09 08:06:55;;;;;;;1.17;0.90;;;;;;;18.92;59.38;96749.28;10490794;28;20038;-30
2023/08/09 08:11:56;;;;;;;1.25;0.70;;;;;;;18.94;59.45;96767.88;10492914;28;20298;-28
2023/08/09 08:16:56;;;;;;;1.60;1.30;;;;;;;18.93;60.17;96773.81;10493513;28;20240;-28
2023/08/09 08:21:57;;;;;;;2.63;1.52;;;;;;;19.03;64.25;96767.88;10492291;28;20143;-28
2023/08/09 08:26:58;;;;;;;3.40;1.65;;;;;;;19.04;64.47;96759.41;10495500;28;20031;-29
2023/08/09 08:31:58;;;;;;;1.97;1.33;;;;;;;19.02;61.10;96773.78;10491632;28;20043;-28
2023/08/09 08:36:59;;;;;;;1.33;1.00;;;;;;;19.00;60.18;96772.97;10524105;28;20028;-28
2023/08/09 08:42:00;;;;;;;1.42;0.90;;;;;;;18.99;59.97;96773.81;10530371;28;20028;-28
2023/08/09 08:47:01;;;;;;;3.57;1.30;;;;;;;19.00;60.87;96783.09;10526076;28;20044;-28
2023/08/09 08:52:07;;;;;;;4.30;1.58;;;;;;;18.98;60.81;96782.25;10529898;28;20418;-28
2023/08/09 08:57:08;;;;;;;2.08;1.10;;;;;;;18.97;59.80;96785.63;10522763;28;20031;-28
2023/08/09 09:02:08;;;;;;;2.87;1.03;;;;;;;18.95;59.94;96787.31;10531096;28;20065;-28
2023/08/09 09:07:11;;;;;;;1.50;0.80;;;;;;;18.94;60.18;96798.31;10524931;28;20093;-27
2023/08/09 09:12:11;;;;;;;2.08;1.20;;;;;;;18.94;60.06;96795.78;10534605;28;20032;-27
2023/08/09 09:17:12;;;;;;;4.23;1.90;;;;;;;18.99;65.63;96801.72;10529416;28;20034;-28
2023/08/09 09:22:31;;;;;;;4.32;1.90;;;;;;;19.01;66.20;96805.09;10533759;28;20037;-28
2023/08/09 09:27:33;;;;;;;2.75;1.58;;;;;;;19.03;64.14;96793.25;10531960;28;20105;-27
2023/08/09 09:32:36;;;;;;;2.03;1.20;;;;;;;19.03;61.41;96798.31;10539317;28;20032;-28
2023/08/09 09:37:36;;;;;;;1.38;0.98;;;;;;;19.02;60.70;96791.56;10532730;28;20127;-28
2023/08/09 09:42:37;;;;;;;1.90;1.00;;;;;;;18.99;60.28;96797.47;10527736;28;20161;-28
2023/08/09 09:47:38;;;;;;;1.63;1.00;;;;;;;18.98;60.19;96805.06;10524865;28;20417;-27
2023/08/09 09:52:42;;;;;;;1.30;1.00;;;;;;;18.95;60.40;96805.94;10533020;28;20600;-28
2023/08/09 09:57:45;;;;;;;2.03;1.05;;;;;;;18.96;60.45;96819.47;10538243;28;20512;-28
2023/08/09 10:02:47;;;;;;;1.48;0.90;;;;;;;18.95;60.43;96820.31;10532554;28;20028;-27
2023/08/09 10:07:49;;;;;;;1.25;0.93;;;;;;;18.95;60.36;96816.09;10535544;28;20184;-28
2023/08/09 10:12:52;;;;;;;2.10;1.10;;;;;;;18.96;60.17;96816.91;10537558;28;20036;-27
2023/08/09 10:18:02;;;;;;;3.05;1.58;;;;;;;19.02;66.25;96804.25;10535399;28;20028;-28
2023/08/09 10:23:03;;;;;;;3.80;2.50;;;;;;;19.02;65.75;96801.69;10533995;28;20032;-28
2023/08/09 10:28:03;;;;;;;2.58;1.85;;;;;;;19.07;63.69;96802.53;10531582;28;20039;-29
2023/08/09 10:33:04;;;;;;;1.95;1.33;;;;;;;18.99;61.12;96802.53;10524106;28;20034;-29
2023/08/09 10:38:08;;;;;;;1.85;1.10;;;;;;;19.04;60.60;96815.22;10529662;28;20261;-28
2023/08/09 10:43:22;;;;;;;1.00;0.90;;;;;;;19.00;60.40;96816.09;10538516;28;20033;-28
2023/08/09 10:48:25;;;;;;;1.85;1.10;;;;;;;18.97;60.26;96813.53;10529871;28;20089;-28
2023/08/09 10:53:27;;;;;;;3.83;1.23;;;;;;;18.96;60.28;96806.78;10530071;28;20044;-28
2023/08/09 10:58:29;;;;;;;1.85;1.55;;;;;;;18.98;60.45;96817.75;10544531;28;20028;-28
2023/08/09 11:03:30;;;;;;;1.23;1.10;;;;;;;18.91;60.32;96806.78;10525651;28;20525;-28
2023/08/09 11:08:31;;;;;;;1.55;1.13;;;;;;;18.95;60.19;96821.16;10526988;28;20031;-28
2023/08/09 11:13:34;;;;;;;2.20;1.40;;;;;;;19.01;62.64;96817.78;10527141;28;20028;-28
2023/08/09 11:18:34;;;;;;;3.30;1.90;;;;;;;19.00;63.80;96805.94;10531876;28;20056;-28
2023/08/09 11:23:35;;;;;;;1.93;1.47;;;;;;;19.11;63.17;96816.91;10537458;28;20028;-28
2023/08/09 11:28:35;;;;;;;3.80;1.23;;;;;;;19.07;62.07;96815.22;10521964;28;20062;-28
2023/08/09 11:33:36;;;;;;;2.55;1.20;;;;;;;19.04;60.69;96807.63;10529446;28;20039;-28
2023/08/09 11:38:36;;;;;;;2.17;1.10;;;;;;;19.03;60.28;96814.41;10532772;28;20035;-28
2023/08/09 11:43:37;;;;;;;2.67;1.38;;;;;;;18.99;60.40;96802.53;10538167;28;20702;-28
2023/08/09 11:48:39;;;;;;;1.23;1.00;;;;;;;19.00;60.33;96804.22;10542277;28;20032;-28
2023/08/09 11:53:41;;;;;;;2.25;1.17;;;;;;;18.98;60.67;96802.53;10531056;28;20032;-28
2023/08/09 11:58:54;;;;;;;3.80;1.10;;;;;;;18.92;60.41;96795.78;10528239;28;20482;-28
2023/08/09 12:04:04;;;;;;;2.13;1.42;;;;;;;19.00;60.32;96808.47;10523141;28;20064;-30
2023/08/09 12:09:40;;;;;;;1.40;1.15;;;;;;;18.99;60.23;96816.94;10528375;28;20042;-28
2023/08/09 12:14:48;;;;;;;9.60;1.90;;;;;;;19.09;63.13;96823.69;10515931;28;20520;-28
2023/08/09 12:19:48;;;;;;;6.97;2.22;;;;;;;19.14;63.57;96827.06;10541089;28;20444;-28
2023/08/09 12:24:49;;;;;;;7.55;1.98;;;;;;;19.10;63.15;96827.91;10526677;28;20036;-28
2023/08/09 12:29:49;;;;;;;1.98;1.10;;;;;;;19.09;60.79;96836.38;10524219;28;20028;-28
2023/08/09 12:34:50;;;;;;;3.80;1.60;;;;;;;19.06;60.40;96828.75;10538443;28;20039;-28
2023/08/09 12:39:50;;;;;;;7.75;1.17;;;;;;;19.03;60.30;96833.84;10526131;28;20293;-28
2023/08/09 12:44:51;;;;;;;2.10;1.20;;;;;;;19.02;60.41;96824.53;10535443;28;20067;-28
2023/08/09 12:49:51;;;;;;;2.08;1.25;;;;;;;19.01;60.47;96827.94;10540459;28;20359;-29
2023/08/09 12:54:52;;;;;;;1.30;1.00;;;;;;;19.02;60.33;96822.00;10524502;28;20032;-28
2023/08/09 12:59:52;;;;;;;2.00;1.00;;;;;;;19.01;60.44;96830.47;10545298;28;20020;-28
2023/08/09 13:04:53;;;;;;;1.27;1.00;;;;;;;19.01;60.38;96838.06;10544749;28;20298;-28
2023/08/09 13:09:53;;;;;;;5.03;1.90;;;;;;;19.04;62.05;96840.59;10532374;28;20036;-28
2023/08/09 13:14:53;;;;;;;9.07;2.97;;;;;;;19.11;63.50;96839.75;10532661;28;20248;-27
2023/08/09 13:19:54;;;;;;;5.83;2.10;;;;;;;19.14;63.35;96839.75;10534622;28;20032;-28
2023/08/09 13:24:54;;;;;;;4.47;1.90;;;;;;;19.11;61.64;96838.06;10526485;28;20036;-28
2023/08/09 13:29:55;;;;;;;1.70;1.50;;;;;;;19.08;60.58;96837.22;10536346;28;20080;-27
2023/08/09 13:34:55;;;;;;;2.10;1.40;;;;;;;19.00;60.41;96826.25;10537568;28;20057;-28
2023/08/09 13:39:55;;;;;;;3.23;1.47;;;;;;;19.05;60.42;96843.16;10539585;28;20037;-28
2023/08/09 13:44:56;;;;;;;2.47;1.20;;;;;;;19.04;60.34;96835.53;10531539;28;20486;-28
2023/08/09 13:49:57;;;;;;;1.87;1.60;;;;;;;19.02;60.52;96842.31;10530040;28;20073;-29
2023/08/09 13:55:01;;;;;;;2.10;1.50;;;;;;;19.02;60.44;96843.13;10543763;28;20567;-27
2023/08/09 14:00:03;;;;;;;1.77;1.30;;;;;;;19.04;60.35;96843.13;10530898;28;20027;-28
2023/08/09 14:05:10;;;;;;;1.55;1.10;;;;;;;19.04;60.36;96855.81;10547294;28;20048;-29
2023/08/09 14:10:10;;;;;;;4.93;2.30;;;;;;;19.10;63.29;96854.13;10526621;28;20043;-28
2023/08/09 14:15:11;;;;;;;3.95;1.85;;;;;;;19.14;63.57;96868.53;10531102;28;20528;-28
2023/08/09 14:20:19;;;;;;;7.30;1.88;;;;;;;19.11;62.26;96867.69;10535937;28;20031;-28
2023/08/09 14:25:25;;;;;;;4.95;1.58;;;;;;;19.13;61.30;96869.38;10521659;28;20032;-28
2023/08/09 14:30:26;;;;;;;;;;;;;;;19.11;60.64;96873.59;10521303;28;20056;-28
2023/08/09 14:35:28;;;;;;;4.82;1.58;;;;;;;19.10;60.94;96881.22;10519967;28;19995;-28
2023/08/09 14:40:28;;;;;;;3.08;1.42;;;;;;;19.10;60.64;96896.44;10512058;28;20042;-28
2023/08/09 14:45:29;;;;;;;2.10;1.50;;;;;;;19.07;60.59;96886.25;10540202;28;20046;-28
2023/08/09 14:50:29;;;;;;;3.50;1.50;;;;;;;19.10;60.53;96886.28;10518005;28;20030;-28
2023/08/09 14:55:29;;;;;;;2.33;1.23;;;;;;;19.10;60.48;96881.22;10518850;28;20529;-28
2023/08/09 15:00:32;;;;;;;3.23;1.53;;;;;;;19.10;60.22;96884.56;10518664;28;20297;-28
2023/08/09 15:05:34;;;;;;;4.93;1.60;;;;;;;19.12;60.29;96890.53;10516055;28;20032;-27
2023/08/09 15:10:36;;;;;;;10.73;3.20;;;;;;;19.22;65.31;96887.16;10521351;28;20040;-27
2023/08/09 15:15:36;;;;;;;11.57;2.90;;;;;;;19.22;64.81;96889.69;10515732;28;20116;-28
2023/08/09 15:20:37;;;;;;;13.93;2.13;;;;;;;19.22;62.35;96896.47;10517742;28;20111;-28
2023/08/09 15:25:38;;;;;;;4.33;1.90;;;;;;;19.20;61.06;96903.25;10521196;28;20294;-28
2023/08/09 15:30:38;;;;;;;6.65;2.03;;;;;;;19.17;60.97;96913.38;10520071;28;20127;-28
2023/08/09 15:35:39;;;;;;;4.53;1.40;;;;;;;19.15;60.73;96899.81;10522697;28;20043;-28
2023/08/09 15:40:39;;;;;;;7.67;1.70;;;;;;;19.12;60.75;96905.75;10531488;28;20111;-28
2023/08/09 15:45:39;;;;;;;9.17;1.63;;;;;;;19.05;60.76;96901.50;10529504;28;20657;-28
2023/08/09 15:50:40;;;;;;;4.67;1.73;;;;;;;19.10;60.88;96909.13;10532118;28;20463;-28
2023/08/09 15:55:41;;;;;;;3.35;1.60;;;;;;;19.12;60.86;96920.13;10524366;28;20093;-28
2023/08/09 16:00:42;;;;;;;10.40;3.30;;;;;;;19.12;64.25;96909.97;10522165;28;20387;-28
2023/08/09 16:05:42;;;;;;;9.57;2.45;;;;;;;19.15;64.69;96915.03;10522212;28;20448;-33
2023/08/09 16:10:43;;;;;;;13.85;3.10;;;;;;;19.25;65.19;96921.88;10522218;28;20042;-29
2023/08/09 16:15:43;;;;;;;24.25;2.90;;;;;;;19.29;64.70;96924.41;10521739;28;20127;-28
2023/08/09 16:20:44;;;;;;;12.00;2.70;;;;;;;19.26;61.75;96928.63;10517577;28;20028;-28
2023/08/09 16:25:44;;;;;;;7.88;1.85;;;;;;;19.22;60.85;96926.91;10526239;28;20028;-29
2023/08/09 16:30:47;;;;;;;7.27;1.73;;;;;;;19.20;60.80;96931.16;10530081;28;20098;-28
2023/08/09 16:35:47;;;;;;;4.28;1.60;;;;;;;19.17;61.03;96931.97;10526801;28;20059;-28
2023/08/09 16:40:48;;;;;;;5.07;1.80;;;;;;;19.16;60.90;96924.38;10529415;28;20024;-29
2023/08/09 16:45:48;;;;;;;7.37;1.60;;;;;;;19.16;60.84;96925.19;10534577;28;20056;-28
2023/08/09 16:50:48;;;;;;;5.53;2.00;;;;;;;19.15;60.89;96930.25;10526624;28;20511;-30
2023/08/09 16:55:49;;;;;;;3.87;1.40;;;;;;;19.14;60.72;96941.25;10526294;28;20073;-28
2023/08/09 17:00:49;;;;;;;10.95;2.47;;;;;;;19.26;64.25;96939.59;10528753;28;20298;-28
2023/08/09 17:05:50;;;;;;;9.87;2.77;;;;;;;19.27;65.15;96927.78;10531578;28;20506;-28
2023/08/09 17:10:51;;;;;;;8.05;2.92;;;;;;;19.34;65.23;96927.75;10529595;28;20506;-28
2023/08/09 17:15:51;;;;;;;5.60;1.73;;;;;;;19.36;63.58;96933.72;10539396;28;20073;-28
2023/08/09 17:20:52;;;;;;;5.17;2.07;;;;;;;19.37;62.17;96937.09;10531157;28;20044;-29
2023/08/09 17:25:55;;;;;;;3.67;1.90;;;;;;;19.36;62.56;96937.94;10522944;28;20356;-29
2023/08/09 17:30:55;;;;;;;3.92;1.80;;;;;;;19.35;62.15;96932.00;10531620;28;20518;-28
2023/08/09 17:35:55;;;;;;;9.65;2.17;;;;;;;19.37;62.47;96937.94;10533436;28;20067;-28
2023/08/09 17:40:56;;;;;;;7.53;2.27;;;;;;;19.36;62.67;96940.47;10545189;28;20044;-28
2023/08/09 17:45:59;;;;;;;3.77;2.37;;;;;;;19.34;62.97;96935.38;10552212;28;20660;-29
2023/08/09 17:50:59;;;;;;;9.35;2.72;;;;;;;19.35;62.46;96939.59;10539406;28;20286;-28
2023/08/09 17:56:00;;;;;;;5.53;2.20;;;;;;;19.34;63.03;96953.16;10537109;28;20028;-29
2023/08/09 18:01:00;;;;;;;6.43;2.58;;;;;;;19.33;62.92;96940.47;10537520;28;20430;-28
2023/08/09 18:06:00;;;;;;;5.53;2.87;;;;;;;19.36;64.45;96940.47;10537129;28;20036;-28
2023/08/09 18:11:01;;;;;;;6.83;2.50;;;;;;;19.36;64.85;96945.56;10528531;28;20290;-28
2023/08/09 18:16:01;;;;;;;5.53;1.87;;;;;;;19.39;63.35;96950.63;10524118;28;20028;-29
2023/08/09 18:21:02;;;;;;;2.90;1.80;;;;;;;19.31;62.45;96937.94;10526161;28;20498;-28
2023/08/09 18:26:02;;;;;;;4.22;1.90;;;;;;;19.35;63.53;96941.31;10522834;28;20036;-29
2023/08/09 18:31:02;;;;;;;3.63;1.83;;;;;;;19.34;62.72;96942.16;10535988;28;20401;-28
2023/08/09 18:36:03;;;;;;;3.57;1.70;;;;;;;19.34;62.31;96953.16;10532062;28;20044;-28
2023/08/09 18:41:04;;;;;;;3.67;2.15;;;;;;;19.34;62.79;96959.94;10526227;28;20409;-29
2023/08/09 18:46:05;;;;;;;3.45;1.85;;;;;;;19.37;62.52;96967.56;10527281;28;20036;-28
2023/08/09 18:51:06;;;;;;;4.88;1.92;;;;;;;19.42;63.25;96970.94;10522886;28;20031;-28
2023/08/09 18:56:06;;;;;;;4.30;3.35;;;;;;;19.38;63.90;96976.84;10520145;28;20496;-28
2023/08/09 19:01:07;;;;;;;4.87;1.97;;;;;;;19.44;65.22;96979.41;10531783;28;20379;-28
2023/08/09 19:06:07;;;;;;;3.57;1.83;;;;;;;19.42;67.26;96976.03;10537765;28;20046;-29
2023/08/09 19:11:07;;;;;;;4.63;1.90;;;;;;;19.49;65.17;96978.56;10529193;28;20043;-29
2023/08/09 19:16:08;;;;;;;4.95;2.05;;;;;;;19.43;64.65;96985.34;10531086;28;20459;-31
2023/08/09 19:21:08;;;;;;;3.50;1.67;;;;;;;19.40;63.70;96990.38;10545385;28;20107;-29
2023/08/09 19:26:09;;;;;;;4.38;1.70;;;;;;;19.40;63.44;96990.38;10530054;28;20043;-29
2023/08/09 19:31:12;;;;;;;2.83;1.70;;;;;;;19.39;63.92;96996.31;10536085;28;20406;-29
2023/08/09 19:36:13;;;;;;;4.43;2.97;;;;;;;19.38;63.35;96999.69;10530441;28;20058;-29
2023/08/09 19:41:13;;;;;;;2.58;1.50;;;;;;;19.37;63.31;97003.09;10529607;28;20043;-30
2023/08/09 19:46:14;;;;;;;4.87;1.93;;;;;;;19.36;67.48;97006.47;10526187;28;20044;-29
2023/08/09 19:51:14;;;;;;;3.97;1.77;;;;;;;19.37;68.30;97000.56;10520998;28;20665;-30
2023/08/09 19:56:15;;;;;;;4.73;1.73;;;;;;;19.35;64.59;97010.69;10529577;28;20032;-29
2023/08/09 20:01:15;;;;;;;2.75;1.65;;;;;;;19.31;65.88;97003.06;10523940;28;20038;-30
2023/08/09 20:06:16;;;;;;;3.33;1.50;;;;;;;19.33;65.09;97007.31;10526908;28;20048;-29
2023/08/09 20:11:16;;;;;;;3.45;1.95;;;;;;;19.32;65.25;97009.84;10510160;28;20668;-30
2023/08/09 20:16:17;;;;;;;2.50;1.70;;;;;;;19.35;64.78;97012.41;10530624;28;20035;-29
2023/08/09 20:21:19;;;;;;;2.60;1.60;;;;;;;19.32;64.70;97009.84;10524762;28;20089;-30
2023/08/09 20:26:20;;;;;;;2.33;1.30;;;;;;;19.33;64.02;97011.56;10525990;28;20070;-29
2023/08/09 20:31:20;;;;;;;1.73;1.30;;;;;;;19.32;64.57;97010.72;10525490;28;20029;-30
2023/08/09 20:36:20;;;;;;;2.13;1.50;;;;;;;19.32;63.17;97009.84;10524532;28;20492;-30
2023/08/09 20:41:21;;;;;;;5.10;1.90;;;;;;;19.37;69.76;97013.25;10521944;28;20482;-30
2023/08/09 20:46:21;;;;;;;2.10;1.90;;;;;;;19.38;69.80;97014.94;10510900;28;20417;-30
2023/08/09 20:51:21;;;;;;;4.97;2.77;;;;;;;19.36;63.86;97014.09;10514464;28;20031;-29
2023/08/09 20:56:22;;;;;;;3.50;1.57;;;;;;;19.36;63.61;97016.63;10528377;28;20056;-30
2023/08/09 21:01:22;;;;;;;1.57;1.23;;;;;;;19.35;63.06;97010.69;10537598;28;20028;-29
2023/08/09 21:06:23;;;;;;;2.22;1.30;;;;;;;19.31;63.13;97008.16;10533211;28;20642;-30
2023/08/09 21:11:26;;;;;;;3.95;1.35;;;;;;;19.32;62.76;97014.94;10529234;28;20066;-30
2023/08/09 21:16:26;;;;;;;2.75;1.38;;;;;;;19.31;63.00;97031.00;10518230;28;20516;-29
2023/08/09 21:21:26;;;;;;;1.97;1.20;;;;;;;19.30;62.85;97019.16;10545573;28;20038;-29
2023/08/09 21:26:27;;;;;;;3.55;1.17;;;;;;;19.30;62.83;97011.53;10534355;28;20043;-29
2023/08/09 21:31:27;;;;;;;5.80;1.50;;;;;;;19.28;62.63;97009.03;10539183;28;20036;-27
2023/08/09 21:36:28;;;;;;;5.50;1.70;;;;;;;19.31;67.20;97016.63;10528366;28;20048;-27
2023/08/09 21:41:28;;;;;;;2.90;1.58;;;;;;;19.34;67.57;97020.88;10535013;28;20385;-27
2023/08/09 21:46:28;;;;;;;2.70;1.70;;;;;;;19.34;67.49;97024.25;10530276;28;20055;-28
2023/08/09 21:51:29;;;;;;;2.27;1.30;;;;;;;19.31;63.31;97018.31;10529178;28;20290;-27
2023/08/09 21:56:29;;;;;;;3.22;0.93;;;;;;;19.25;63.07;97013.25;10527724;28;20030;-28
2023/08/09 22:01:30;;;;;;;1.43;1.20;;;;;;;19.32;62.81;97014.94;10526998;28;20028;-27
2023/08/09 22:06:30;;;;;;;1.30;1.13;;;;;;;19.30;62.59;97024.25;10539234;28;20403;-28
2023/08/09 22:11:31;;;;;;;1.30;1.00;;;;;;;19.30;62.83;97026.78;10538093;28;20494;-28
2023/08/09 22:16:31;;;;;;;2.63;1.13;;;;;;;19.30;62.61;97029.31;10530951;28;20035;-28
2023/08/09 22:21:32;;;;;;;1.95;1.40;;;;;;;19.28;62.43;97019.19;10530486;28;20028;-27
2023/08/09 22:26:33;;;;;;;1.50;1.20;;;;;;;19.29;62.48;97020.00;10516309;28;20081;-27
2023/08/09 22:31:33;;;;;;;1.60;1.05;;;;;;;19.27;62.40;97027.63;10531363;28;20039;-27
2023/08/09 22:36:36;;;;;;;4.20;1.50;;;;;;;19.30;66.41;97029.31;10535376;28;20036;-27
2023/08/09 22:41:37;;;;;;;2.63;1.70;;;;;;;19.26;66.51;97020.00;10536501;28;20056;-28
2023/08/09 22:46:37;;;;;;;4.23;1.67;;;;;;;19.33;66.28;97026.81;10529632;28;20562;-27
2023/08/09 22:51:37;;;;;;;2.50;1.20;;;;;;;19.32;62.58;97032.69;10529300;28;20097;-28
2023/08/09 22:56:38;;;;;;;2.30;1.10;;;;;;;19.31;62.30;97038.63;10523984;28;20024;-28
2023/08/09 23:01:39;;;;;;;1.65;1.10;;;;;;;19.30;62.51;97047.09;10531951;28;20036;-27
2023/08/09 23:06:40;;;;;;;1.65;1.25;;;;;;;19.27;62.42;97047.91;10528370;28;20032;-28
2023/08/09 23:11:40;;;;;;;1.67;1.00;;;;;;;19.30;62.07;97059.78;10527726;28;20024;-28
2023/08/09 23:16:40;;;;;;;1.17;1.07;;;;;;;19.29;62.02;97063.16;10526372;28;20049;-27
2023/08/09 23:21:41;;;;;;;2.50;1.20;;;;;;;19.27;61.95;97058.06;10533898;28;20035;-28